sensor_id;sensor_type;location;lat;lon;timestamp;P1;durP1;ratioP1;P2;durP2;ratioP2
69754;SDS011;57023;52.218;5.158;2023-02-03T00:00:04;7.10;;;2.90;;
69754;SDS011;57023;52.218;5.158;2023-02-03T00:02:30;7.97;;;2.80;;
69754;SDS011;57023;52.218;5.158;2023-02-03T00:04:55;5.32;;;2.25;;
69754;SDS011;57023;52.218;5.158;2023-02-03T00:07:21;7.40;;;2.90;;
69754;SDS011;57023;52.218;5.158;2023-02-03T00:09:46;6.35;;;2.72;;
69754;SDS011;57023;52.218;5.158;2023-02-03T00:12:12;8.82;;;2.42;;
69754;SDS011;57023;52.218;5.158;2023-02-03T00:14:37;7.03;;;2.60;;
69754;SDS011;57023;52.218;5.158;2023-02-03T00:17:03;7.57;;;2.88;;
69754;SDS011;57023;52.218;5.158;2023-02-03T00:19:29;9.10;;;2.80;;
69754;SDS011;57023;52.218;5.158;2023-02-03T00:21:54;7.68;;;2.70;;
69754;SDS011;57023;52.218;5.158;2023-02-03T00:24:20;10.38;;;2.92;;
69754;SDS011;57023;52.218;5.158;2023-02-03T00:26:47;9.75;;;2.53;;
69754;SDS011;57023;52.218;5.158;2023-02-03T00:29:12;10.32;;;2.90;;
69754;SDS011;57023;52.218;5.158;2023-02-03T00:31:38;5.28;;;2.55;;
69754;SDS011;57023;52.218;5.158;2023-02-03T00:34:04;6.03;;;2.53;;
69754;SDS011;57023;52.218;5.158;2023-02-03T00:36:29;7.25;;;2.80;;
69754;SDS011;57023;52.218;5.158;2023-02-03T00:38:54;11.70;;;2.90;;
69754;SDS011;57023;52.218;5.158;2023-02-03T00:41:20;6.95;;;2.50;;
69754;SDS011;57023;52.218;5.158;2023-02-03T00:43:45;7.78;;;2.80;;
69754;SDS011;57023;52.218;5.158;2023-02-03T00:46:11;5.88;;;2.33;;
69754;SDS011;57023;52.218;5.158;2023-02-03T00:48:36;9.43;;;2.95;;
69754;SDS011;57023;52.218;5.158;2023-02-03T00:51:02;5.85;;;2.60;;
69754;SDS011;57023;52.218;5.158;2023-02-03T00:53:27;7.18;;;2.70;;
69754;SDS011;57023;52.218;5.158;2023-02-03T00:55:52;6.35;;;2.67;;
69754;SDS011;57023;52.218;5.158;2023-02-03T00:58:18;5.85;;;2.40;;
69754;SDS011;57023;52.218;5.158;2023-02-03T01:00:43;8.13;;;2.50;;
69754;SDS011;57023;52.218;5.158;2023-02-03T01:03:08;5.72;;;2.25;;
69754;SDS011;57023;52.218;5.158;2023-02-03T01:05:34;8.35;;;2.80;;
69754;SDS011;57023;52.218;5.158;2023-02-03T01:08:00;5.55;;;2.60;;
69754;SDS011;57023;52.218;5.158;2023-02-03T01:10:25;5.07;;;2.28;;
69754;SDS011;57023;52.218;5.158;2023-02-03T01:12:50;6.70;;;2.70;;
69754;SDS011;57023;52.218;5.158;2023-02-03T01:15:16;6.55;;;2.50;;
69754;SDS011;57023;52.218;5.158;2023-02-03T01:17:41;9.65;;;2.70;;
69754;SDS011;57023;52.218;5.158;2023-02-03T01:20:07;5.50;;;2.50;;
69754;SDS011;57023;52.218;5.158;2023-02-03T01:22:32;10.50;;;2.97;;
69754;SDS011;57023;52.218;5.158;2023-02-03T01:24:58;6.10;;;2.72;;
69754;SDS011;57023;52.218;5.158;2023-02-03T01:27:23;7.38;;;2.60;;
69754;SDS011;57023;52.218;5.158;2023-02-03T01:29:48;5.95;;;2.42;;
69754;SDS011;57023;52.218;5.158;2023-02-03T01:32:14;6.85;;;2.30;;
69754;SDS011;57023;52.218;5.158;2023-02-03T01:34:39;7.30;;;2.33;;
69754;SDS011;57023;52.218;5.158;2023-02-03T01:37:04;7.15;;;2.58;;
69754;SDS011;57023;52.218;5.158;2023-02-03T01:39:30;9.57;;;2.70;;
69754;SDS011;57023;52.218;5.158;2023-02-03T01:41:55;4.97;;;2.40;;
69754;SDS011;57023;52.218;5.158;2023-02-03T01:44:41;6.93;;;2.83;;
69754;SDS011;57023;52.218;5.158;2023-02-03T01:47:22;6.55;;;2.50;;
69754;SDS011;57023;52.218;5.158;2023-02-03T01:50:05;6.03;;;2.60;;
69754;SDS011;57023;52.218;5.158;2023-02-03T01:52:32;5.90;;;2.33;;
69754;SDS011;57023;52.218;5.158;2023-02-03T01:54:59;6.65;;;2.40;;
69754;SDS011;57023;52.218;5.158;2023-02-03T01:57:33;6.88;;;2.50;;
69754;SDS011;57023;52.218;5.158;2023-02-03T01:59:59;7.13;;;2.38;;
69754;SDS011;57023;52.218;5.158;2023-02-03T02:02:26;5.63;;;2.22;;
69754;SDS011;57023;52.218;5.158;2023-02-03T02:04:54;5.85;;;2.28;;
69754;SDS011;57023;52.218;5.158;2023-02-03T02:07:22;8.27;;;2.30;;
69754;SDS011;57023;52.218;5.158;2023-02-03T02:09:49;6.00;;;1.97;;
69754;SDS011;57023;52.218;5.158;2023-02-03T02:12:14;7.10;;;2.30;;
69754;SDS011;57023;52.218;5.158;2023-02-03T02:14:39;4.80;;;1.92;;
69754;SDS011;57023;52.218;5.158;2023-02-03T02:36:07;5.45;;;2.03;;
69754;SDS011;57023;52.218;5.158;2023-02-03T02:38:39;4.70;;;1.90;;
69754;SDS011;57023;52.218;5.158;2023-02-03T02:41:20;4.25;;;1.80;;
69754;SDS011;57023;52.218;5.158;2023-02-03T02:43:56;6.03;;;2.05;;
69754;SDS011;57023;52.218;5.158;2023-02-03T02:46:44;6.32;;;2.10;;
69754;SDS011;57023;52.218;5.158;2023-02-03T02:49:18;4.43;;;2.03;;
69754;SDS011;57023;52.218;5.158;2023-02-03T02:51:47;6.03;;;2.30;;
69754;SDS011;57023;52.218;5.158;2023-02-03T02:54:14;6.00;;;2.00;;
69754;SDS011;57023;52.218;5.158;2023-02-03T02:56:41;5.60;;;2.10;;
69754;SDS011;57023;52.218;5.158;2023-02-03T02:59:07;4.85;;;1.85;;
69754;SDS011;57023;52.218;5.158;2023-02-03T03:01:32;6.15;;;2.30;;
69754;SDS011;57023;52.218;5.158;2023-02-03T03:03:58;6.25;;;1.92;;
69754;SDS011;57023;52.218;5.158;2023-02-03T03:06:32;5.43;;;2.25;;
69754;SDS011;57023;52.218;5.158;2023-02-03T03:11:42;5.47;;;1.77;;
69754;SDS011;57023;52.218;5.158;2023-02-03T03:14:10;6.85;;;2.10;;
69754;SDS011;57023;52.218;5.158;2023-02-03T03:16:37;7.13;;;2.25;;
69754;SDS011;57023;52.218;5.158;2023-02-03T03:19:04;5.10;;;2.20;;
69754;SDS011;57023;52.218;5.158;2023-02-03T03:21:34;6.72;;;2.00;;
69754;SDS011;57023;52.218;5.158;2023-02-03T03:24:23;5.75;;;2.10;;
69754;SDS011;57023;52.218;5.158;2023-02-03T03:27:02;8.25;;;2.30;;
69754;SDS011;57023;52.218;5.158;2023-02-03T03:32:11;4.22;;;2.17;;
69754;SDS011;57023;52.218;5.158;2023-02-03T03:34:36;5.10;;;2.13;;
69754;SDS011;57023;52.218;5.158;2023-02-03T03:39:54;4.40;;;2.10;;
69754;SDS011;57023;52.218;5.158;2023-02-03T03:42:33;6.03;;;2.30;;
69754;SDS011;57023;52.218;5.158;2023-02-03T03:45:09;5.72;;;2.63;;
69754;SDS011;57023;52.218;5.158;2023-02-03T03:47:41;7.22;;;2.50;;
69754;SDS011;57023;52.218;5.158;2023-02-03T03:50:15;5.00;;;2.17;;
69754;SDS011;57023;52.218;5.158;2023-02-03T03:52:43;5.25;;;2.20;;
69754;SDS011;57023;52.218;5.158;2023-02-03T03:55:09;6.07;;;2.25;;
69754;SDS011;57023;52.218;5.158;2023-02-03T03:57:45;5.22;;;1.83;;
69754;SDS011;57023;52.218;5.158;2023-02-03T04:00:17;5.82;;;2.20;;
69754;SDS011;57023;52.218;5.158;2023-02-03T04:02:45;8.13;;;2.40;;
69754;SDS011;57023;52.218;5.158;2023-02-03T04:05:15;5.07;;;1.90;;
69754;SDS011;57023;52.218;5.158;2023-02-03T04:07:41;7.22;;;2.10;;
69754;SDS011;57023;52.218;5.158;2023-02-03T04:12:56;5.85;;;2.20;;
69754;SDS011;57023;52.218;5.158;2023-02-03T04:15:22;5.15;;;1.90;;
69754;SDS011;57023;52.218;5.158;2023-02-03T04:17:47;6.35;;;1.85;;
69754;SDS011;57023;52.218;5.158;2023-02-03T04:20:13;6.15;;;2.20;;
69754;SDS011;57023;52.218;5.158;2023-02-03T04:22:39;7.80;;;2.13;;
69754;SDS011;57023;52.218;5.158;2023-02-03T04:25:04;5.90;;;2.10;;
69754;SDS011;57023;52.218;5.158;2023-02-03T04:27:30;6.95;;;2.13;;
69754;SDS011;57023;52.218;5.158;2023-02-03T04:29:55;5.25;;;2.13;;
69754;SDS011;57023;52.218;5.158;2023-02-03T04:32:21;5.82;;;1.90;;
69754;SDS011;57023;52.218;5.158;2023-02-03T04:34:46;6.60;;;2.10;;
69754;SDS011;57023;52.218;5.158;2023-02-03T04:37:11;6.00;;;2.20;;
69754;SDS011;57023;52.218;5.158;2023-02-03T04:39:37;5.55;;;1.98;;
69754;SDS011;57023;52.218;5.158;2023-02-03T04:42:02;8.05;;;2.35;;
69754;SDS011;57023;52.218;5.158;2023-02-03T04:44:27;6.00;;;2.08;;
69754;SDS011;57023;52.218;5.158;2023-02-03T04:46:53;5.78;;;2.05;;
69754;SDS011;57023;52.218;5.158;2023-02-03T04:49:18;6.15;;;2.28;;
69754;SDS011;57023;52.218;5.158;2023-02-03T04:51:43;5.85;;;2.00;;
69754;SDS011;57023;52.218;5.158;2023-02-03T04:54:09;7.32;;;2.35;;
69754;SDS011;57023;52.218;5.158;2023-02-03T04:56:35;6.38;;;2.40;;
69754;SDS011;57023;52.218;5.158;2023-02-03T04:59:01;9.60;;;2.60;;
69754;SDS011;57023;52.218;5.158;2023-02-03T05:01:26;4.55;;;2.00;;
69754;SDS011;57023;52.218;5.158;2023-02-03T05:03:51;8.32;;;2.30;;
69754;SDS011;57023;52.218;5.158;2023-02-03T05:06:21;6.50;;;2.40;;
69754;SDS011;57023;52.218;5.158;2023-02-03T05:08:48;6.78;;;2.10;;
69754;SDS011;57023;52.218;5.158;2023-02-03T05:11:14;5.38;;;2.33;;
69754;SDS011;57023;52.218;5.158;2023-02-03T05:13:39;7.20;;;2.40;;
69754;SDS011;57023;52.218;5.158;2023-02-03T05:16:04;6.03;;;2.42;;
69754;SDS011;57023;52.218;5.158;2023-02-03T05:18:30;6.00;;;2.40;;
69754;SDS011;57023;52.218;5.158;2023-02-03T05:20:55;6.35;;;2.15;;
69754;SDS011;57023;52.218;5.158;2023-02-03T05:23:20;7.55;;;2.10;;
69754;SDS011;57023;52.218;5.158;2023-02-03T05:25:46;6.50;;;2.30;;
69754;SDS011;57023;52.218;5.158;2023-02-03T05:28:11;5.05;;;2.08;;
69754;SDS011;57023;52.218;5.158;2023-02-03T05:30:36;8.10;;;2.80;;
69754;SDS011;57023;52.218;5.158;2023-02-03T05:33:02;5.57;;;2.05;;
69754;SDS011;57023;52.218;5.158;2023-02-03T05:35:27;10.38;;;2.42;;
69754;SDS011;57023;52.218;5.158;2023-02-03T05:37:52;5.43;;;2.10;;
69754;SDS011;57023;52.218;5.158;2023-02-03T05:40:18;6.63;;;2.70;;
69754;SDS011;57023;52.218;5.158;2023-02-03T05:43:02;4.55;;;1.85;;
69754;SDS011;57023;52.218;5.158;2023-02-03T05:45:27;6.95;;;2.63;;
69754;SDS011;57023;52.218;5.158;2023-02-03T05:47:52;7.07;;;2.20;;
69754;SDS011;57023;52.218;5.158;2023-02-03T05:50:17;6.60;;;2.30;;
69754;SDS011;57023;52.218;5.158;2023-02-03T05:52:43;7.97;;;2.10;;
69754;SDS011;57023;52.218;5.158;2023-02-03T05:55:08;6.75;;;2.30;;
69754;SDS011;57023;52.218;5.158;2023-02-03T05:57:33;7.00;;;2.20;;
69754;SDS011;57023;52.218;5.158;2023-02-03T05:59:59;6.13;;;2.30;;
69754;SDS011;57023;52.218;5.158;2023-02-03T06:02:24;7.72;;;2.13;;
69754;SDS011;57023;52.218;5.158;2023-02-03T06:04:49;5.90;;;2.22;;
69754;SDS011;57023;52.218;5.158;2023-02-03T06:07:15;5.97;;;2.00;;
69754;SDS011;57023;52.218;5.158;2023-02-03T06:09:40;6.80;;;2.08;;
69754;SDS011;57023;52.218;5.158;2023-02-03T06:12:05;8.00;;;2.50;;
69754;SDS011;57023;52.218;5.158;2023-02-03T06:14:31;7.05;;;2.38;;
69754;SDS011;57023;52.218;5.158;2023-02-03T06:16:56;5.55;;;2.08;;
69754;SDS011;57023;52.218;5.158;2023-02-03T06:19:21;9.20;;;2.83;;
69754;SDS011;57023;52.218;5.158;2023-02-03T06:21:47;5.80;;;2.20;;
69754;SDS011;57023;52.218;5.158;2023-02-03T06:24:12;5.93;;;2.30;;
69754;SDS011;57023;52.218;5.158;2023-02-03T06:26:37;6.18;;;2.50;;
69754;SDS011;57023;52.218;5.158;2023-02-03T06:29:03;7.82;;;2.20;;
69754;SDS011;57023;52.218;5.158;2023-02-03T06:31:28;7.85;;;2.33;;
69754;SDS011;57023;52.218;5.158;2023-02-03T06:33:53;5.78;;;2.38;;
69754;SDS011;57023;52.218;5.158;2023-02-03T06:36:21;7.03;;;2.45;;
69754;SDS011;57023;52.218;5.158;2023-02-03T06:38:47;8.20;;;2.50;;
69754;SDS011;57023;52.218;5.158;2023-02-03T06:41:12;7.95;;;2.50;;
69754;SDS011;57023;52.218;5.158;2023-02-03T06:43:38;7.00;;;2.65;;
69754;SDS011;57023;52.218;5.158;2023-02-03T06:46:03;7.88;;;2.65;;
69754;SDS011;57023;52.218;5.158;2023-02-03T06:48:29;7.47;;;2.47;;
69754;SDS011;57023;52.218;5.158;2023-02-03T06:50:54;8.27;;;2.17;;
69754;SDS011;57023;52.218;5.158;2023-02-03T06:53:19;7.60;;;2.50;;
69754;SDS011;57023;52.218;5.158;2023-02-03T06:55:45;7.35;;;2.42;;
69754;SDS011;57023;52.218;5.158;2023-02-03T06:58:11;8.97;;;2.53;;
69754;SDS011;57023;52.218;5.158;2023-02-03T07:00:37;7.07;;;2.20;;
69754;SDS011;57023;52.218;5.158;2023-02-03T07:03:02;8.52;;;2.58;;
69754;SDS011;57023;52.218;5.158;2023-02-03T07:05:28;7.07;;;2.55;;
69754;SDS011;57023;52.218;5.158;2023-02-03T07:07:53;6.63;;;2.28;;
69754;SDS011;57023;52.218;5.158;2023-02-03T07:10:19;7.20;;;2.35;;
69754;SDS011;57023;52.218;5.158;2023-02-03T07:12:44;9.07;;;2.88;;
69754;SDS011;57023;52.218;5.158;2023-02-03T07:15:10;11.45;;;2.85;;
69754;SDS011;57023;52.218;5.158;2023-02-03T07:17:36;6.47;;;2.17;;
69754;SDS011;57023;52.218;5.158;2023-02-03T07:20:02;8.15;;;2.83;;
69754;SDS011;57023;52.218;5.158;2023-02-03T07:22:28;7.80;;;2.50;;
69754;SDS011;57023;52.218;5.158;2023-02-03T07:24:53;8.73;;;2.60;;
69754;SDS011;57023;52.218;5.158;2023-02-03T07:27:18;8.52;;;2.58;;
69754;SDS011;57023;52.218;5.158;2023-02-03T07:29:44;7.03;;;2.40;;
69754;SDS011;57023;52.218;5.158;2023-02-03T07:32:09;6.28;;;2.30;;
69754;SDS011;57023;52.218;5.158;2023-02-03T07:34:35;10.68;;;2.80;;
69754;SDS011;57023;52.218;5.158;2023-02-03T07:37:00;9.15;;;2.63;;
69754;SDS011;57023;52.218;5.158;2023-02-03T07:39:26;8.77;;;2.50;;
69754;SDS011;57023;52.218;5.158;2023-02-03T07:41:51;11.13;;;2.53;;
69754;SDS011;57023;52.218;5.158;2023-02-03T07:44:16;9.23;;;2.40;;
69754;SDS011;57023;52.218;5.158;2023-02-03T07:46:42;9.70;;;3.15;;
69754;SDS011;57023;52.218;5.158;2023-02-03T07:49:11;8.83;;;2.73;;
69754;SDS011;57023;52.218;5.158;2023-02-03T07:51:37;7.70;;;2.70;;
69754;SDS011;57023;52.218;5.158;2023-02-03T07:54:02;8.15;;;2.65;;
69754;SDS011;57023;52.218;5.158;2023-02-03T07:56:28;9.98;;;2.80;;
69754;SDS011;57023;52.218;5.158;2023-02-03T07:58:54;8.60;;;2.50;;
69754;SDS011;57023;52.218;5.158;2023-02-03T08:01:20;8.05;;;2.63;;
69754;SDS011;57023;52.218;5.158;2023-02-03T08:03:45;8.85;;;2.50;;
69754;SDS011;57023;52.218;5.158;2023-02-03T08:06:10;5.93;;;2.50;;
69754;SDS011;57023;52.218;5.158;2023-02-03T08:08:36;7.53;;;2.30;;
69754;SDS011;57023;52.218;5.158;2023-02-03T08:11:01;6.38;;;2.50;;
69754;SDS011;57023;52.218;5.158;2023-02-03T08:13:26;8.45;;;2.60;;
69754;SDS011;57023;52.218;5.158;2023-02-03T08:15:52;6.57;;;2.45;;
69754;SDS011;57023;52.218;5.158;2023-02-03T08:18:17;6.07;;;2.55;;
69754;SDS011;57023;52.218;5.158;2023-02-03T08:20:45;7.78;;;2.45;;
69754;SDS011;57023;52.218;5.158;2023-02-03T08:23:12;7.63;;;2.53;;
69754;SDS011;57023;52.218;5.158;2023-02-03T08:25:37;9.10;;;2.80;;
69754;SDS011;57023;52.218;5.158;2023-02-03T08:28:02;7.25;;;2.47;;
69754;SDS011;57023;52.218;5.158;2023-02-03T08:30:28;7.35;;;2.60;;
69754;SDS011;57023;52.218;5.158;2023-02-03T08:32:53;6.68;;;2.50;;
69754;SDS011;57023;52.218;5.158;2023-02-03T08:35:18;7.15;;;2.40;;
69754;SDS011;57023;52.218;5.158;2023-02-03T08:37:44;8.30;;;2.55;;
69754;SDS011;57023;52.218;5.158;2023-02-03T08:40:09;9.35;;;2.85;;
69754;SDS011;57023;52.218;5.158;2023-02-03T08:42:35;6.03;;;2.28;;
69754;SDS011;57023;52.218;5.158;2023-02-03T08:45:00;6.75;;;2.30;;
69754;SDS011;57023;52.218;5.158;2023-02-03T08:47:26;7.90;;;2.80;;
69754;SDS011;57023;52.218;5.158;2023-02-03T08:49:51;8.13;;;2.60;;
69754;SDS011;57023;52.218;5.158;2023-02-03T08:52:17;7.03;;;2.42;;
69754;SDS011;57023;52.218;5.158;2023-02-03T08:54:42;9.48;;;2.42;;
69754;SDS011;57023;52.218;5.158;2023-02-03T08:57:08;7.97;;;2.63;;
69754;SDS011;57023;52.218;5.158;2023-02-03T08:59:39;10.57;;;2.92;;
69754;SDS011;57023;52.218;5.158;2023-02-03T09:02:06;10.07;;;2.72;;
69754;SDS011;57023;52.218;5.158;2023-02-03T09:04:34;9.48;;;2.58;;
69754;SDS011;57023;52.218;5.158;2023-02-03T09:07:00;7.78;;;2.63;;
69754;SDS011;57023;52.218;5.158;2023-02-03T09:09:27;8.70;;;2.55;;
69754;SDS011;57023;52.218;5.158;2023-02-03T09:11:53;8.80;;;2.90;;
69754;SDS011;57023;52.218;5.158;2023-02-03T09:14:24;8.90;;;2.60;;
69754;SDS011;57023;52.218;5.158;2023-02-03T09:16:51;10.77;;;2.80;;
69754;SDS011;57023;52.218;5.158;2023-02-03T09:19:16;7.65;;;2.70;;
69754;SDS011;57023;52.218;5.158;2023-02-03T09:21:41;10.25;;;2.78;;
69754;SDS011;57023;52.218;5.158;2023-02-03T09:24:07;8.63;;;2.60;;
69754;SDS011;57023;52.218;5.158;2023-02-03T09:26:33;7.00;;;2.60;;
69754;SDS011;57023;52.218;5.158;2023-02-03T09:28:58;8.18;;;2.40;;
69754;SDS011;57023;52.218;5.158;2023-02-03T09:31:23;7.32;;;2.70;;
69754;SDS011;57023;52.218;5.158;2023-02-03T09:33:49;6.88;;;2.70;;
69754;SDS011;57023;52.218;5.158;2023-02-03T09:36:14;6.50;;;2.42;;
69754;SDS011;57023;52.218;5.158;2023-02-03T09:38:40;7.65;;;2.40;;
69754;SDS011;57023;52.218;5.158;2023-02-03T09:44:12;12.60;;;2.83;;
69754;SDS011;57023;52.218;5.158;2023-02-03T09:47:26;9.57;;;2.80;;
69754;SDS011;57023;52.218;5.158;2023-02-03T09:49:43;7.70;;;2.55;;
69754;SDS011;57023;52.218;5.158;2023-02-03T09:52:18;7.03;;;2.30;;
69754;SDS011;57023;52.218;5.158;2023-02-03T09:54:57;6.40;;;2.53;;
69754;SDS011;57023;52.218;5.158;2023-02-03T09:57:27;9.35;;;2.63;;
69754;SDS011;57023;52.218;5.158;2023-02-03T09:59:55;9.30;;;2.50;;
69754;SDS011;57023;52.218;5.158;2023-02-03T10:07:59;7.03;;;2.63;;
69754;SDS011;57023;52.218;5.158;2023-02-03T10:18:15;8.52;;;2.60;;
69754;SDS011;57023;52.218;5.158;2023-02-03T10:20:48;4.93;;;2.10;;
69754;SDS011;57023;52.218;5.158;2023-02-03T10:23:17;6.40;;;2.25;;
69754;SDS011;57023;52.218;5.158;2023-02-03T10:25:52;8.00;;;2.58;;
69754;SDS011;57023;52.218;5.158;2023-02-03T10:28:24;9.68;;;2.75;;
69754;SDS011;57023;52.218;5.158;2023-02-03T10:31:00;6.65;;;2.22;;
69754;SDS011;57023;52.218;5.158;2023-02-03T10:33:30;10.82;;;2.95;;
69754;SDS011;57023;52.218;5.158;2023-02-03T10:41:17;6.35;;;2.40;;
69754;SDS011;57023;52.218;5.158;2023-02-03T10:43:43;6.63;;;2.30;;
69754;SDS011;57023;52.218;5.158;2023-02-03T10:48:56;8.68;;;2.50;;
69754;SDS011;57023;52.218;5.158;2023-02-03T10:51:23;7.68;;;2.83;;
69754;SDS011;57023;52.218;5.158;2023-02-03T10:53:57;8.32;;;2.70;;
69754;SDS011;57023;52.218;5.158;2023-02-03T10:56:24;6.40;;;2.28;;
69754;SDS011;57023;52.218;5.158;2023-02-03T10:58:53;10.57;;;3.03;;
69754;SDS011;57023;52.218;5.158;2023-02-03T11:06:23;5.47;;;2.50;;
69754;SDS011;57023;52.218;5.158;2023-02-03T11:08:49;5.10;;;2.38;;
69754;SDS011;57023;52.218;5.158;2023-02-03T11:11:19;7.72;;;2.30;;
69754;SDS011;57023;52.218;5.158;2023-02-03T11:16:27;6.32;;;2.22;;
69754;SDS011;57023;52.218;5.158;2023-02-03T11:18:57;5.53;;;2.40;;
69754;SDS011;57023;52.218;5.158;2023-02-03T11:26:56;7.75;;;2.33;;
69754;SDS011;57023;52.218;5.158;2023-02-03T11:29:30;5.40;;;2.50;;
69754;SDS011;57023;52.218;5.158;2023-02-03T11:32:21;6.38;;;2.50;;
69754;SDS011;57023;52.218;5.158;2023-02-03T11:34:56;6.85;;;2.50;;
69754;SDS011;57023;52.218;5.158;2023-02-03T11:37:33;5.18;;;2.30;;
69754;SDS011;57023;52.218;5.158;2023-02-03T11:42:37;5.47;;;2.33;;
69754;SDS011;57023;52.218;5.158;2023-02-03T11:47:56;7.28;;;2.33;;
69754;SDS011;57023;52.218;5.158;2023-02-03T11:55:54;7.15;;;2.65;;
69754;SDS011;57023;52.218;5.158;2023-02-03T12:01:30;7.03;;;2.53;;
69754;SDS011;57023;52.218;5.158;2023-02-03T12:15:21;7.10;;;2.70;;
69754;SDS011;57023;52.218;5.158;2023-02-03T12:18:14;7.53;;;2.85;;
69754;SDS011;57023;52.218;5.158;2023-02-03T12:20:53;8.32;;;2.85;;
69754;SDS011;57023;52.218;5.158;2023-02-03T12:29:20;8.98;;;2.88;;
69754;SDS011;57023;52.218;5.158;2023-02-03T12:32:01;7.70;;;3.05;;
69754;SDS011;57023;52.218;5.158;2023-02-03T12:34:35;7.70;;;3.70;;
69754;SDS011;57023;52.218;5.158;2023-02-03T12:37:22;9.57;;;3.00;;
69754;SDS011;57023;52.218;5.158;2023-02-03T12:39:51;6.72;;;2.60;;
69754;SDS011;57023;52.218;5.158;2023-02-03T12:44:46;6.75;;;2.70;;
69754;SDS011;57023;52.218;5.158;2023-02-03T12:50:31;8.40;;;2.55;;
69754;SDS011;57023;52.218;5.158;2023-02-03T12:56:08;13.82;;;3.25;;
69754;SDS011;57023;52.218;5.158;2023-02-03T12:58:47;8.57;;;2.72;;
69754;SDS011;57023;52.218;5.158;2023-02-03T13:01:33;8.18;;;2.90;;
69754;SDS011;57023;52.218;5.158;2023-02-03T13:04:08;8.68;;;3.30;;
69754;SDS011;57023;52.218;5.158;2023-02-03T13:09:30;8.95;;;2.92;;
69754;SDS011;57023;52.218;5.158;2023-02-03T13:14:41;10.05;;;2.80;;
69754;SDS011;57023;52.218;5.158;2023-02-03T13:17:14;9.50;;;2.95;;
69754;SDS011;57023;52.218;5.158;2023-02-03T13:19:44;9.48;;;3.22;;
69754;SDS011;57023;52.218;5.158;2023-02-03T13:22:15;8.05;;;3.20;;
69754;SDS011;57023;52.218;5.158;2023-02-03T13:25:03;10.25;;;3.22;;
69754;SDS011;57023;52.218;5.158;2023-02-03T13:27:38;10.95;;;3.63;;
69754;SDS011;57023;52.218;5.158;2023-02-03T13:30:17;8.15;;;3.20;;
69754;SDS011;57023;52.218;5.158;2023-02-03T13:38:02;9.45;;;3.15;;
69754;SDS011;57023;52.218;5.158;2023-02-03T13:40:54;9.65;;;3.10;;
69754;SDS011;57023;52.218;5.158;2023-02-03T13:43:25;9.82;;;3.22;;
69754;SDS011;57023;52.218;5.158;2023-02-03T13:45:53;12.73;;;3.50;;
69754;SDS011;57023;52.218;5.158;2023-02-03T13:48:26;8.88;;;3.22;;
69754;SDS011;57023;52.218;5.158;2023-02-03T13:53:37;11.00;;;3.33;;
69754;SDS011;57023;52.218;5.158;2023-02-03T13:56:05;10.27;;;3.22;;
69754;SDS011;57023;52.218;5.158;2023-02-03T13:58:33;9.82;;;3.40;;
69754;SDS011;57023;52.218;5.158;2023-02-03T14:01:05;12.57;;;3.42;;
69754;SDS011;57023;52.218;5.158;2023-02-03T14:03:49;9.25;;;3.30;;
69754;SDS011;57023;52.218;5.158;2023-02-03T14:09:01;12.50;;;3.27;;
69754;SDS011;57023;52.218;5.158;2023-02-03T14:11:42;10.20;;;3.15;;
69754;SDS011;57023;52.218;5.158;2023-02-03T14:16:34;9.97;;;3.33;;
69754;SDS011;57023;52.218;5.158;2023-02-03T14:19:01;11.90;;;3.10;;
69754;SDS011;57023;52.218;5.158;2023-02-03T14:21:26;12.00;;;3.30;;
69754;SDS011;57023;52.218;5.158;2023-02-03T14:24:01;13.43;;;3.25;;
69754;SDS011;57023;52.218;5.158;2023-02-03T14:26:33;12.82;;;3.40;;
69754;SDS011;57023;52.218;5.158;2023-02-03T14:29:02;9.20;;;3.28;;
69754;SDS011;57023;52.218;5.158;2023-02-03T14:31:28;11.63;;;3.83;;
69754;SDS011;57023;52.218;5.158;2023-02-03T14:38:52;12.75;;;3.38;;
69754;SDS011;57023;52.218;5.158;2023-02-03T14:41:21;12.20;;;3.13;;
69754;SDS011;57023;52.218;5.158;2023-02-03T14:59:34;14.13;;;4.00;;
69754;SDS011;57023;52.218;5.158;2023-02-03T15:04:27;13.87;;;3.90;;
69754;SDS011;57023;52.218;5.158;2023-02-03T15:06:52;14.13;;;3.75;;
69754;SDS011;57023;52.218;5.158;2023-02-03T15:11:49;12.95;;;4.20;;
69754;SDS011;57023;52.218;5.158;2023-02-03T15:16:44;14.60;;;3.90;;
69754;SDS011;57023;52.218;5.158;2023-02-03T15:19:14;13.13;;;3.83;;
69754;SDS011;57023;52.218;5.158;2023-02-03T15:21:41;12.90;;;3.95;;
69754;SDS011;57023;52.218;5.158;2023-02-03T15:24:14;15.55;;;4.38;;
69754;SDS011;57023;52.218;5.158;2023-02-03T15:26:46;12.82;;;3.80;;
69754;SDS011;57023;52.218;5.158;2023-02-03T15:29:32;11.43;;;3.78;;
69754;SDS011;57023;52.218;5.158;2023-02-03T15:32:00;12.88;;;3.63;;
69754;SDS011;57023;52.218;5.158;2023-02-03T15:34:41;17.42;;;4.15;;
69754;SDS011;57023;52.218;5.158;2023-02-03T15:37:12;12.40;;;3.92;;
69754;SDS011;57023;52.218;5.158;2023-02-03T15:42:35;14.85;;;3.78;;
69754;SDS011;57023;52.218;5.158;2023-02-03T15:45:07;13.80;;;3.83;;
69754;SDS011;57023;52.218;5.158;2023-02-03T15:47:40;16.55;;;3.78;;
69754;SDS011;57023;52.218;5.158;2023-02-03T15:53:05;12.73;;;4.03;;
69754;SDS011;57023;52.218;5.158;2023-02-03T15:55:40;16.60;;;4.07;;
69754;SDS011;57023;52.218;5.158;2023-02-03T15:58:29;11.15;;;4.03;;
69754;SDS011;57023;52.218;5.158;2023-02-03T16:00:54;13.07;;;4.10;;
69754;SDS011;57023;52.218;5.158;2023-02-03T16:03:24;12.35;;;4.20;;
69754;SDS011;57023;52.218;5.158;2023-02-03T16:05:53;13.13;;;4.20;;
69754;SDS011;57023;52.218;5.158;2023-02-03T16:08:24;17.35;;;4.80;;
69754;SDS011;57023;52.218;5.158;2023-02-03T16:10:54;16.95;;;4.75;;
69754;SDS011;57023;52.218;5.158;2023-02-03T16:13:24;16.05;;;4.32;;
69754;SDS011;57023;52.218;5.158;2023-02-03T16:18:29;12.43;;;3.40;;
69754;SDS011;57023;52.218;5.158;2023-02-03T16:20:57;14.98;;;3.58;;
69754;SDS011;57023;52.218;5.158;2023-02-03T16:23:23;15.63;;;3.75;;
69754;SDS011;57023;52.218;5.158;2023-02-03T16:26:01;12.75;;;4.00;;
69754;SDS011;57023;52.218;5.158;2023-02-03T16:28:28;16.85;;;4.03;;
69754;SDS011;57023;52.218;5.158;2023-02-03T16:31:19;13.27;;;3.63;;
69754;SDS011;57023;52.218;5.158;2023-02-03T16:34:16;13.85;;;3.20;;
69754;SDS011;57023;52.218;5.158;2023-02-03T16:37:09;11.85;;;3.25;;
69754;SDS011;57023;52.218;5.158;2023-02-03T16:39:54;13.32;;;3.85;;
69754;SDS011;57023;52.218;5.158;2023-02-03T16:42:38;12.98;;;3.70;;
69754;SDS011;57023;52.218;5.158;2023-02-03T16:45:23;13.93;;;3.72;;
69754;SDS011;57023;52.218;5.158;2023-02-03T16:48:11;15.55;;;3.78;;
69754;SDS011;57023;52.218;5.158;2023-02-03T16:50:55;14.30;;;3.38;;
69754;SDS011;57023;52.218;5.158;2023-02-03T16:53:22;12.35;;;3.67;;
69754;SDS011;57023;52.218;5.158;2023-02-03T16:55:49;10.70;;;3.42;;
69754;SDS011;57023;52.218;5.158;2023-02-03T16:58:16;11.40;;;3.67;;
69754;SDS011;57023;52.218;5.158;2023-02-03T17:00:43;13.07;;;3.38;;
69754;SDS011;57023;52.218;5.158;2023-02-03T17:03:17;15.82;;;4.30;;
69754;SDS011;57023;52.218;5.158;2023-02-03T17:05:44;11.75;;;3.95;;
69754;SDS011;57023;52.218;5.158;2023-02-03T17:08:10;12.82;;;3.75;;
69754;SDS011;57023;52.218;5.158;2023-02-03T17:10:38;13.82;;;3.65;;
69754;SDS011;57023;52.218;5.158;2023-02-03T17:13:04;16.98;;;3.50;;
69754;SDS011;57023;52.218;5.158;2023-02-03T17:15:30;14.88;;;3.92;;
69754;SDS011;57023;52.218;5.158;2023-02-03T17:17:57;15.00;;;4.15;;
69754;SDS011;57023;52.218;5.158;2023-02-03T17:20:22;12.73;;;3.60;;
69754;SDS011;57023;52.218;5.158;2023-02-03T17:22:48;12.85;;;3.83;;
69754;SDS011;57023;52.218;5.158;2023-02-03T17:25:17;13.70;;;4.32;;
69754;SDS011;57023;52.218;5.158;2023-02-03T17:27:42;8.45;;;3.20;;
69754;SDS011;57023;52.218;5.158;2023-02-03T17:30:08;17.42;;;4.05;;
69754;SDS011;57023;52.218;5.158;2023-02-03T17:32:34;11.60;;;3.92;;
69754;SDS011;57023;52.218;5.158;2023-02-03T17:34:59;16.27;;;3.83;;
69754;SDS011;57023;52.218;5.158;2023-02-03T17:37:24;11.00;;;3.38;;